Time;durP1;ratioP1;P1;durP2;ratioP2;P2;SDS_P1;SDS_P2;PMS_P1;PMS_P2;Temp;Humidity;BMP_temperature;BMP_pressure;BME280_temperature;BME280_humidity;BME280_pressure;Samples;Min_cycle;Max_cycle;Signal;HPM_P1;HPM_P2
2021/01/05 00:00:53;;;;;;;4.75;3.47;;;20.40;42.90;;;;;;6275727;28;20485;-60
2021/01/05 00:03:53;;;;;;;4.68;3.35;;;20.40;43.00;;;;;;6268800;28;20036;-60
2021/01/05 00:06:54;;;;;;;5.50;3.70;;;20.30;42.80;;;;;;6273843;28;20051;-60
2021/01/05 00:09:54;;;;;;;5.38;3.40;;;20.30;42.90;;;;;;6268710;28;20029;-60
2021/01/05 00:12:55;;;;;;;6.55;3.80;;;20.30;42.90;;;;;;6267977;28;20025;-60
2021/01/05 00:15:55;;;;;;;6.15;3.85;;;20.30;42.90;;;;;;6285366;28;20036;-60
2021/01/05 00:18:56;;;;;;;5.30;3.20;;;20.30;42.90;;;;;;6276487;28;20052;-60
2021/01/05 00:21:56;;;;;;;6.18;4.30;;;20.30;43.00;;;;;;6276296;28;20426;-59
2021/01/05 00:24:57;;;;;;;6.07;4.00;;;20.30;42.80;;;;;;6276479;28;20021;-59
2021/01/05 00:27:57;;;;;;;5.65;3.95;;;20.30;42.90;;;;;;6276166;28;20033;-59
2021/01/05 00:30:58;;;;;;;6.10;3.90;;;20.30;42.90;;;;;;6276661;28;20110;-59
2021/01/05 00:33:58;;;;;;;4.72;3.50;;;20.30;43.40;;;;;;6275959;28;20020;-60
2021/01/05 00:37:00;;;;;;;6.30;3.92;;;20.30;43.00;;;;;;6276493;28;20029;-57
2021/01/05 00:40:00;;;;;;;6.88;4.10;;;20.30;43.00;;;;;;6275728;28;20021;-58
2021/01/05 00:43:02;;;;;;;5.45;3.60;;;20.30;43.00;;;;;;6275908;28;20024;-57
2021/01/05 00:46:04;;;;;;;5.85;3.88;;;20.30;43.10;;;;;;6275966;28;20118;-57
2021/01/05 00:49:05;;;;;;;5.20;3.53;;;20.20;43.00;;;;;;6293755;28;20477;-57
2021/01/05 00:52:05;;;;;;;6.95;4.28;;;20.30;43.10;;;;;;6275592;28;20059;-57
2021/01/05 00:55:07;;;;;;;6.55;3.70;;;20.20;43.00;;;;;;6293625;28;20028;-56
2021/01/05 00:58:07;;;;;;;4.90;3.40;;;20.30;43.20;;;;;;6275671;28;20084;-57
2021/01/05 01:01:08;;;;;;;5.05;3.90;;;20.20;43.10;;;;;;6275254;28;20033;-59
2021/01/05 01:04:08;;;;;;;5.03;3.60;;;20.20;43.10;;;;;;6267153;28;20021;-56
2021/01/05 01:07:09;;;;;;;5.30;3.58;;;20.20;43.10;;;;;;6251422;28;20662;-59
2021/01/05 01:10:10;;;;;;;5.57;3.70;;;20.20;43.10;;;;;;6266783;28;20074;-58
2021/01/05 01:13:11;;;;;;;4.78;3.20;;;20.20;43.10;;;;;;6275241;28;20048;-58
2021/01/05 01:16:13;;;;;;;6.22;3.42;;;20.20;43.30;;;;;;6275133;28;20050;-55
2021/01/05 01:19:13;;;;;;;5.50;3.58;;;20.20;43.20;;;;;;6266804;28;20029;-56
2021/01/05 01:22:19;;;;;;;5.20;3.53;;;20.20;43.20;;;;;;6267298;28;20028;-54
2021/01/05 01:25:20;;;;;;;5.53;3.53;;;20.20;43.20;;;;;;6275008;28;20400;-58
2021/01/05 01:28:20;;;;;;;4.72;3.38;;;20.10;43.10;;;;;;6274944;28;20071;-55
2021/01/05 01:31:21;;;;;;;4.22;3.15;;;20.10;43.10;;;;;;6274862;28;20027;-57
2021/01/05 01:34:24;;;;;;;5.00;3.40;;;20.10;43.20;;;;;;6274516;28;20025;-57
2021/01/05 01:37:24;;;;;;;5.32;4.15;;;20.10;43.20;;;;;;6274614;28;20024;-57
2021/01/05 01:40:42;;;;;;;5.00;3.40;;;20.10;43.10;;;;;;6274522;28;20035;-55
2021/01/05 01:43:43;;;;;;;6.82;3.40;;;20.10;43.20;;;;;;6291571;28;20051;-56
2021/01/05 01:46:43;;;;;;;5.85;3.72;;;20.10;43.30;;;;;;6274414;28;20021;-59
2021/01/05 01:49:47;;;;;;;5.15;3.50;;;20.10;43.20;;;;;;6274556;28;20027;-59
2021/01/05 01:53:02;;;;;;;4.78;3.22;;;20.10;43.20;;;;;;6274046;28;20039;-54
2021/01/05 01:56:43;;;;;;;4.65;3.78;;;20.10;43.20;;;;;;6274532;28;20499;-55
2021/01/05 02:00:03;;;;;;;5.38;3.53;;;20.10;43.30;;;;;;6274952;28;20020;-55
2021/01/05 02:03:25;;;;;;;5.72;3.80;;;20.10;43.30;;;;;;6273965;28;20028;-58
2021/01/05 02:07:04;;;;;;;5.13;3.20;;;20.10;43.30;;;;;;6291284;28;20090;-55
2021/01/05 02:10:39;;;;;;;4.28;3.20;;;20.10;43.30;;;;;;6273540;28;20048;-59
2021/01/05 02:13:56;;;;;;;5.00;3.55;;;20.00;43.30;;;;;;6271698;28;20029;-56
2021/01/05 02:16:56;;;;;;;4.97;3.63;;;20.00;43.30;;;;;;6266033;28;20078;-59
2021/01/05 02:20:03;;;;;;;5.50;3.67;;;20.00;43.30;;;;;;6274033;28;20024;-59
2021/01/05 02:23:25;;;;;;;5.35;3.72;;;20.00;43.30;;;;;;6276695;28;20396;-56
2021/01/05 02:26:59;;;;;;;5.30;3.83;;;20.00;43.40;;;;;;6279006;28;20024;-58
2021/01/05 02:30:05;;;;;;;4.90;3.78;;;20.00;43.40;;;;;;6279094;28;20502;-57
2021/01/05 02:33:33;;;;;;;6.55;3.83;;;20.00;43.40;;;;;;6279150;28;20028;-57
2021/01/05 02:36:56;;;;;;;5.45;3.53;;;20.00;43.40;;;;;;6278893;28;20026;-56
2021/01/05 02:40:22;;;;;;;5.47;3.78;;;20.00;43.40;;;;;;6296918;28;20025;-57
2021/01/05 02:43:26;;;;;;;4.88;3.70;;;20.00;43.40;;;;;;6278042;28;20182;-56
2021/01/05 02:46:58;;;;;;;6.63;3.75;;;20.00;43.40;;;;;;6279264;28;20031;-57
2021/01/05 02:50:12;;;;;;;5.68;4.20;;;20.00;43.40;;;;;;6278599;28;20036;-56
2021/01/05 02:53:40;;;;;;;4.72;3.75;;;20.00;43.40;;;;;;6278601;28;20090;-59
2021/01/05 02:57:01;;;;;;;4.30;3.35;;;20.00;43.50;;;;;;6278845;28;20052;-56
2021/01/05 03:00:39;;;;;;;5.82;3.67;;;20.00;43.50;;;;;;6278224;28;20447;-59
2021/01/05 03:03:45;;;;;;;6.10;3.88;;;20.00;43.50;;;;;;6278303;28;20042;-59
2021/01/05 03:06:50;;;;;;;4.85;3.53;;;19.90;43.50;;;;;;6278801;28;20672;-57
2021/01/05 03:10:17;;;;;;;4.53;3.20;;;19.90;43.50;;;;;;6277845;28;20040;-55
2021/01/05 03:13:31;;;;;;;6.13;3.80;;;20.00;43.50;;;;;;6271287;28;20036;-56
2021/01/05 03:16:35;;;;;;;4.97;3.53;;;20.00;43.50;;;;;;6277780;28;20024;-58
2021/01/05 03:19:46;;;;;;;3.88;2.92;;;19.90;43.40;;;;;;6278058;28;20029;-58
2021/01/05 03:22:53;;;;;;;5.15;3.20;;;20.00;43.60;;;;;;6269455;28;20018;-58
2021/01/05 03:25:55;;;;;;;4.20;3.10;;;19.90;43.50;;;;;;6277974;28;20031;-56
2021/01/05 03:28:57;;;;;;;4.55;3.38;;;19.90;43.50;;;;;;6277789;28;20546;-59
2021/01/05 03:32:08;;;;;;;5.50;3.58;;;19.90;43.50;;;;;;6278094;28;20024;-58
2021/01/05 03:35:08;;;;;;;4.68;3.13;;;19.90;43.50;;;;;;6277154;28;20036;-57
2021/01/05 03:38:09;;;;;;;4.63;3.25;;;19.90;43.60;;;;;;6277940;28;20025;-58
2021/01/05 03:41:10;;;;;;;5.03;3.38;;;19.90;43.60;;;;;;6269073;28;20049;-57
2021/01/05 03:44:11;;;;;;;4.55;3.13;;;19.90;43.60;;;;;;6272367;28;20057;-59
2021/01/05 03:47:12;;;;;;;4.72;3.33;;;19.90;43.60;;;;;;6277314;28;20123;-58
2021/01/05 03:50:15;;;;;;;4.55;3.55;;;19.90;43.50;;;;;;6276996;28;20024;-58
2021/01/05 03:53:15;;;;;;;4.35;3.08;;;19.90;43.50;;;;;;6277263;28;20059;-58
2021/01/05 03:56:16;;;;;;;4.93;3.55;;;19.90;43.60;;;;;;6276964;28;20129;-58
2021/01/05 03:59:16;;;;;;;3.90;2.90;;;19.90;43.60;;;;;;6277179;28;20016;-57
2021/01/05 04:02:18;;;;;;;5.05;3.30;;;19.90;43.60;;;;;;6276526;28;20035;-58
2021/01/05 04:05:18;;;;;;;4.00;2.92;;;19.80;43.60;;;;;;6277024;28;20662;-53
2021/01/05 04:08:19;;;;;;;3.80;2.90;;;19.80;43.60;;;;;;6276647;28;20020;-55
2021/01/05 04:11:19;;;;;;;5.05;3.55;;;19.80;43.60;;;;;;6276551;28;20021;-55
2021/01/05 04:14:20;;;;;;;4.07;3.13;;;19.80;43.70;;;;;;6293458;28;20020;-56
2021/01/05 04:17:20;;;;;;;4.63;3.33;;;19.80;43.60;;;;;;6268223;28;20035;-58
2021/01/05 04:20:22;;;;;;;4.57;3.42;;;19.80;43.70;;;;;;6291772;28;20055;-57
2021/01/05 04:23:23;;;;;;;4.78;3.38;;;19.80;43.60;;;;;;6276315;28;20107;-56
2021/01/05 04:26:23;;;;;;;3.97;2.60;;;19.80;43.60;;;;;;6268203;28;20068;-57
2021/01/05 04:29:24;;;;;;;4.15;3.17;;;19.80;43.70;;;;;;6268175;28;20041;-58
2021/01/05 04:32:25;;;;;;;3.92;3.00;;;19.80;43.70;;;;;;6276003;28;20100;-59
2021/01/05 04:35:26;;;;;;;3.97;2.83;;;19.80;43.70;;;;;;6275987;28;20106;-57
2021/01/05 04:38:26;;;;;;;4.45;3.00;;;19.80;43.70;;;;;;6276413;28;20021;-57
2021/01/05 04:41:30;;;;;;;4.25;3.15;;;19.80;43.70;;;;;;6275877;28;20498;-56
2021/01/05 04:44:40;;;;;;;5.15;3.20;;;19.80;43.70;;;;;;6275619;28;20027;-57
2021/01/05 04:48:12;;;;;;;4.47;3.15;;;19.80;43.70;;;;;;6292202;28;20036;-57
2021/01/05 04:51:35;;;;;;;4.18;3.00;;;19.80;43.70;;;;;;6275765;28;20028;-59
2021/01/05 04:54:51;;;;;;;5.32;2.72;;;19.80;43.70;;;;;;6275557;28;20028;-58
2021/01/05 04:58:06;;;;;;;5.07;3.28;;;19.70;43.50;;;;;;6275706;28;20036;-57
2021/01/05 05:01:31;;;;;;;4.07;3.00;;;19.70;43.50;;;;;;6275625;28;20055;-57
2021/01/05 05:04:36;;;;;;;4.72;3.42;;;19.70;43.60;;;;;;6275280;28;20404;-56
2021/01/05 05:08:00;;;;;;;;;;;19.70;43.60;;;;;;6276093;28;20051;-58
2021/01/05 05:11:11;;;;;;;4.07;2.80;;;19.70;43.60;;;;;;6239773;28;19927;-57
2021/01/05 05:14:28;;;;;;;5.93;2.95;;;19.80;43.60;;;;;;6275343;28;20059;-56
2021/01/05 05:17:43;;;;;;;4.10;2.55;;;19.80;43.60;;;;;;6275190;28;20116;-58
2021/01/05 05:20:59;;;;;;;;;;;19.80;43.50;;;;;;6275498;28;20016;-55
2021/01/05 05:24:19;;;;;;;5.65;3.30;;;19.80;43.60;;;;;;6275401;28;19908;-57
2021/01/05 05:27:38;;;;;;;5.93;3.63;;;19.90;43.70;;;;;;6274717;28;20050;-57
2021/01/05 05:30:41;;;;;;;4.68;2.63;;;19.90;43.70;;;;;;6291719;28;20039;-59
2021/01/05 05:33:41;;;;;;;3.55;2.78;;;19.90;43.70;;;;;;6274971;28;20117;-57
2021/01/05 05:36:54;;;;;;;3.90;2.97;;;19.90;44.40;;;;;;6274898;28;20032;-57
2021/01/05 05:40:28;;;;;;;3.03;2.63;;;19.90;43.70;;;;;;6274714;28;20059;-58
2021/01/05 05:43:40;;;;;;;3.53;2.88;;;19.90;43.90;;;;;;6275299;28;20020;-57
2021/01/05 05:47:11;;;;;;;3.20;2.58;;;19.90;43.90;;;;;;6274572;28;20032;-57
2021/01/05 05:50:43;;;;;;;4.70;2.90;;;19.90;43.80;;;;;;6269320;28;20473;-56
2021/01/05 05:53:47;;;;;;;4.43;2.95;;;19.90;43.90;;;;;;6268692;28;20037;-58
2021/01/05 05:56:50;;;;;;;3.55;2.72;;;19.90;43.80;;;;;;6273560;28;20032;-56
2021/01/05 05:59:59;;;;;;;4.65;3.17;;;19.90;43.90;;;;;;6274739;28;20017;-55
2021/01/05 06:03:01;;;;;;;3.90;2.80;;;19.90;43.80;;;;;;6274315;28;20020;-56
2021/01/05 06:06:02;;;;;;;4.10;2.78;;;19.90;43.90;;;;;;6274362;28;20393;-57
2021/01/05 06:09:04;;;;;;;3.83;2.63;;;19.90;43.80;;;;;;6274450;28;20028;-58
2021/01/05 06:12:07;;;;;;;2.75;2.40;;;20.00;43.60;;;;;;6265633;28;20029;-57
2021/01/05 06:15:11;;;;;;;3.67;2.83;;;20.10;43.60;;;;;;6282871;28;20025;-59
2021/01/05 06:18:14;;;;;;;3.65;2.33;;;20.30;43.60;;;;;;6273792;28;20127;-56
2021/01/05 06:21:15;;;;;;;3.55;2.50;;;20.30;43.50;;;;;;6273807;28;20017;-58
2021/01/05 06:24:15;;;;;;;3.47;2.50;;;20.40;43.50;;;;;;6274346;28;20023;-58
2021/01/05 06:27:16;;;;;;;3.58;2.53;;;20.50;43.50;;;;;;6274013;28;20024;-58
2021/01/05 06:30:17;;;;;;;3.38;2.78;;;20.50;43.50;;;;;;6274272;28;20028;-59
2021/01/05 06:33:18;;;;;;;3.65;2.63;;;20.60;43.50;;;;;;6274245;28;20020;-56
2021/01/05 06:36:18;;;;;;;7.40;2.90;;;20.60;43.60;;;;;;6258572;28;20121;-60
2021/01/05 06:39:19;;;;;;;4.60;3.08;;;20.60;43.60;;;;;;6273797;28;20013;-57
2021/01/05 06:42:19;;;;;;;9.00;3.33;;;20.70;43.40;;;;;;6277072;28;20031;-59
2021/01/05 06:45:24;;;;;;;5.00;3.30;;;20.80;43.10;;;;;;6272904;28;20111;-61
2021/01/05 06:48:24;;;;;;;5.00;3.08;;;20.90;43.00;;;;;;6272537;28;20049;-60
2021/01/05 06:51:25;;;;;;;3.20;2.78;;;20.90;43.00;;;;;;6272875;28;20032;-61
2021/01/05 06:54:26;;;;;;;5.93;3.08;;;21.00;43.10;;;;;;6284768;28;20066;-61
2021/01/05 06:57:26;;;;;;;4.47;2.70;;;21.00;43.10;;;;;;6263951;28;20021;-60
2021/01/05 07:00:28;;;;;;;8.02;3.42;;;21.10;43.90;;;;;;6268756;28;20082;-61
2021/01/05 07:03:29;;;;;;;4.72;3.30;;;21.10;43.10;;;;;;6281850;28;20017;-60
2021/01/05 07:06:29;;;;;;;5.25;3.25;;;21.10;43.10;;;;;;6266400;28;20032;-59
2021/01/05 07:09:33;;;;;;;5.18;3.15;;;21.20;43.20;;;;;;6276717;28;20475;-60
2021/01/05 07:12:35;;;;;;;5.85;3.20;;;21.20;43.20;;;;;;6278042;28;20427;-59
2021/01/05 07:15:35;;;;;;;4.75;3.25;;;21.20;43.10;;;;;;6278145;28;20031;-59
2021/01/05 07:18:36;;;;;;;5.07;3.35;;;21.30;43.20;;;;;;6268860;28;20029;-61
2021/01/05 07:21:36;;;;;;;5.30;3.30;;;21.30;43.10;;;;;;6270956;28;20578;-60
2021/01/05 07:24:37;;;;;;;6.68;3.00;;;21.30;43.10;;;;;;6279049;28;20499;-60
2021/01/05 07:27:37;;;;;;;6.45;3.33;;;21.30;43.10;;;;;;6275808;28;20040;-60
2021/01/05 07:30:38;;;;;;;5.10;3.20;;;21.40;43.30;;;;;;6274858;28;20483;-61
2021/01/05 07:33:38;;;;;;;3.60;2.75;;;21.40;43.10;;;;;;6285706;28;20037;-61
2021/01/05 07:36:47;;;;;;;4.32;2.85;;;21.40;43.20;;;;;;6269704;28;20021;-60
2021/01/05 07:39:48;;;;;;;4.22;3.10;;;21.40;43.10;;;;;;6295151;28;20077;-60
2021/01/05 07:42:49;;;;;;;3.83;2.72;;;21.40;43.10;;;;;;6275078;28;20020;-59
2021/01/05 07:45:49;;;;;;;4.78;2.72;;;21.40;43.30;;;;;;6295313;28;20090;-60
2021/01/05 07:48:50;;;;;;;7.15;3.20;;;21.40;43.40;;;;;;6279095;28;20074;-61
2021/01/05 07:51:50;;;;;;;4.40;3.05;;;21.50;43.10;;;;;;6285086;28;20076;-59
2021/01/05 07:54:51;;;;;;;6.47;3.50;;;21.50;42.90;;;;;;6267152;28;20029;-60
2021/01/05 07:57:53;;;;;;;4.53;3.20;;;21.50;42.90;;;;;;6277228;28;20020;-60
2021/01/05 08:00:53;;;;;;;5.28;3.28;;;21.60;42.80;;;;;;6277444;28;20148;-61
2021/01/05 08:03:54;;;;;;;7.57;3.15;;;21.70;43.00;;;;;;6275263;28;20025;-61
2021/01/05 08:06:55;;;;;;;4.95;3.50;;;21.60;43.10;;;;;;6256817;28;20025;-61
2021/01/05 08:09:55;;;;;;;9.82;3.42;;;21.70;43.00;;;;;;6269104;28;20029;-59
2021/01/05 08:12:56;;;;;;;4.38;2.90;;;21.70;43.00;;;;;;6272637;28;20032;-59
2021/01/05 08:15:57;;;;;;;5.13;2.95;;;21.70;43.10;;;;;;6276633;28;20025;-59
2021/01/05 08:18:57;;;;;;;5.43;3.20;;;21.70;43.00;;;;;;6279122;28;20019;-60
2021/01/05 08:21:58;;;;;;;4.47;3.03;;;21.70;43.10;;;;;;6274820;28;20434;-59
2021/01/05 08:24:59;;;;;;;5.28;3.20;;;21.70;43.10;;;;;;6275531;28;20536;-60
2021/01/05 08:28:00;;;;;;;4.82;3.13;;;21.70;43.00;;;;;;6275579;28;20089;-62
2021/01/05 08:31:01;;;;;;;4.70;3.22;;;21.70;43.00;;;;;;6294100;28;20035;-60
2021/01/05 08:34:02;;;;;;;7.78;3.60;;;21.70;43.00;;;;;;6284074;28;20418;-61
2021/01/05 08:37:02;;;;;;;10.80;3.70;;;21.70;43.00;;;;;;6292265;28;20111;-60
2021/01/05 08:40:05;;;;;;;10.85;3.92;;;21.70;42.80;;;;;;6275397;28;20521;-60
2021/01/05 08:43:11;;;;;;;10.10;3.97;;;21.70;42.60;;;;;;6275868;28;20455;-60
2021/01/05 08:46:18;;;;;;;6.90;3.60;;;21.70;42.60;;;;;;6270331;28;20036;-59
2021/01/05 08:49:19;;;;;;;8.98;3.45;;;21.70;42.60;;;;;;6260455;28;20059;-60
2021/01/05 08:52:20;;;;;;;6.72;3.97;;;21.80;42.80;;;;;;6288684;28;20017;-56
2021/01/05 08:55:21;;;;;;;7.85;3.47;;;21.80;42.70;;;;;;6275024;28;20060;-58
2021/01/05 08:58:21;;;;;;;4.80;3.30;;;21.70;42.70;;;;;;6279217;28;20021;-59
2021/01/05 09:01:23;;;;;;;5.20;3.33;;;21.80;42.70;;;;;;6277048;28;20025;-58
2021/01/05 09:04:23;;;;;;;4.25;3.08;;;21.80;42.70;;;;;;6275181;28;20029;-61
2021/01/05 09:07:24;;;;;;;6.70;3.35;;;21.80;42.80;;;;;;6267967;28;20028;-61
2021/01/05 09:10:26;;;;;;;5.55;3.35;;;21.80;42.70;;;;;;6276111;28;20021;-61
2021/01/05 09:13:27;;;;;;;4.32;3.25;;;21.80;42.90;;;;;;6271936;28;20051;-59
2021/01/05 09:16:30;;;;;;;8.02;3.42;;;21.80;42.80;;;;;;6269159;28;20525;-62
2021/01/05 09:19:31;;;;;;;4.80;3.17;;;21.90;42.80;;;;;;6281504;28;20016;-61
2021/01/05 09:22:31;;;;;;;4.68;3.25;;;21.80;42.70;;;;;;6292651;28;20083;-59
2021/01/05 09:25:32;;;;;;;12.70;3.30;;;21.80;42.80;;;;;;6272948;28;20027;-63
2021/01/05 09:28:32;;;;;;;14.20;3.33;;;21.90;42.80;;;;;;6283282;28;20032;-65
2021/01/05 09:31:42;;;;;;;15.75;2.90;;;21.90;42.80;;;;;;6270319;28;20029;-61
2021/01/05 09:34:43;;;;;;;14.23;4.03;;;22.00;43.40;;;;;;6276066;28;20166;-60
2021/01/05 09:37:45;;;;;;;8.55;3.17;;;22.00;42.90;;;;;;6275700;28;20028;-63
2021/01/05 09:40:46;;;;;;;4.57;3.05;;;22.00;42.70;;;;;;6267076;28;20036;-60
2021/01/05 09:43:47;;;;;;;5.28;3.00;;;22.00;42.80;;;;;;6267613;28;20371;-56
2021/01/05 09:46:50;;;;;;;8.65;3.45;;;22.10;42.70;;;;;;6267340;28;20051;-55
2021/01/05 09:49:51;;;;;;;9.20;4.68;;;22.00;42.50;;;;;;6274755;28;20056;-56
2021/01/05 09:52:51;;;;;;;11.15;5.28;;;21.80;41.60;;;;;;6275741;28;20059;-56
2021/01/05 09:55:52;;;;;;;7.80;4.90;;;21.90;41.10;;;;;;6275232;28;20119;-62
2021/01/05 09:58:52;;;;;;;10.65;4.43;;;22.00;40.90;;;;;;6275487;28;20033;-61
2021/01/05 10:01:54;;;;;;;12.43;5.00;;;22.10;41.30;;;;;;6266783;28;20029;-62
2021/01/05 10:04:55;;;;;;;9.82;4.95;;;22.10;40.70;;;;;;6273965;28;20074;-62
2021/01/05 10:07:56;;;;;;;16.33;5.50;;;22.10;40.80;;;;;;6272993;28;20569;-61
2021/01/05 10:10:57;;;;;;;7.22;4.60;;;22.10;40.90;;;;;;6286185;28;20024;-60
2021/01/05 10:13:57;;;;;;;10.07;4.50;;;22.20;41.00;;;;;;6289559;28;20067;-61
2021/01/05 10:16:58;;;;;;;8.80;4.35;;;22.20;41.00;;;;;;6290313;28;20029;-60
2021/01/05 10:19:59;;;;;;;6.03;3.88;;;22.20;41.00;;;;;;6258968;28;20025;-61
2021/01/05 10:22:59;;;;;;;7.07;4.38;;;22.20;41.20;;;;;;6259549;28;20036;-60
2021/01/05 10:26:00;;;;;;;6.38;3.95;;;22.20;41.20;;;;;;6272639;28;20031;-62
2021/01/05 10:29:02;;;;;;;6.28;4.35;;;22.20;41.20;;;;;;6273291;28;20040;-61
2021/01/05 10:32:03;;;;;;;5.30;3.75;;;22.20;41.20;;;;;;6271682;28;20046;-59
2021/01/05 10:35:04;;;;;;;6.95;4.30;;;22.20;41.20;;;;;;6289924;28;20481;-60
2021/01/05 10:38:05;;;;;;;5.90;3.55;;;22.20;41.30;;;;;;6277045;28;20072;-61
2021/01/05 10:41:06;;;;;;;7.05;3.92;;;22.30;41.40;;;;;;6268711;28;20074;-60
2021/01/05 10:44:07;;;;;;;4.88;3.38;;;22.30;41.40;;;;;;6275539;28;20063;-61
2021/01/05 10:47:13;;;;;;;11.10;3.70;;;22.30;42.30;;;;;;6277145;28;20028;-61
2021/01/05 10:50:17;;;;;;;11.73;3.50;;;22.30;42.20;;;;;;6276994;28;20024;-60
2021/01/05 10:53:18;;;;;;;7.45;3.88;;;22.30;42.00;;;;;;6275953;28;20067;-60
2021/01/05 10:56:19;;;;;;;5.65;3.67;;;22.20;41.90;;;;;;6276269;28;20497;-60
2021/01/05 10:59:20;;;;;;;5.70;3.45;;;22.20;41.80;;;;;;6277497;28;20024;-60
2021/01/05 11:02:20;;;;;;;5.25;3.28;;;22.20;42.00;;;;;;6277432;28;20039;-61
2021/01/05 11:05:21;;;;;;;5.35;3.72;;;22.20;42.00;;;;;;6277706;28;20021;-61
2021/01/05 11:08:21;;;;;;;5.65;3.70;;;22.20;42.10;;;;;;6293460;28;20370;-59
2021/01/05 11:11:22;;;;;;;5.65;3.60;;;22.20;42.00;;;;;;6276764;28;20059;-61
2021/01/05 11:14:23;;;;;;;7.15;2.97;;;22.10;41.90;;;;;;6276626;28;20115;-60
2021/01/05 11:17:24;;;;;;;6.40;3.70;;;22.10;42.00;;;;;;6276619;28;20024;-62
2021/01/05 11:20:24;;;;;;;5.25;3.30;;;22.10;42.10;;;;;;6276806;28;20110;-63
2021/01/05 11:23:25;;;;;;;4.30;3.13;;;22.10;42.10;;;;;;6277369;28;20032;-61
2021/01/05 11:26:25;;;;;;;22.23;11.13;;;22.10;42.00;;;;;;6275901;28;20020;-62
2021/01/05 11:29:26;;;;;;;27.65;9.80;;;22.00;41.80;;;;;;6275794;28;20044;-61
2021/01/05 11:32:27;;;;;;;27.13;11.30;;;22.10;42.00;;;;;;6275148;28;20032;-63
2021/01/05 11:35:28;;;;;;;26.48;9.63;;;22.10;42.00;;;;;;6278595;28;20417;-63
2021/01/05 11:38:28;;;;;;;15.82;7.88;;;22.20;42.00;;;;;;6274947;28;20056;-65
2021/01/05 11:41:31;;;;;;;33.05;8.48;;;22.20;41.90;;;;;;6278063;28;20051;-62
2021/01/05 11:44:32;;;;;;;29.00;8.55;;;22.20;42.40;;;;;;6267863;28;20052;-62
2021/01/05 11:47:33;;;;;;;17.15;8.07;;;22.20;42.30;;;;;;6274956;28;20077;-60
2021/01/05 11:50:34;;;;;;;17.63;7.68;;;22.20;42.60;;;;;;6275686;28;20020;-61
2021/01/05 11:53:34;;;;;;;17.08;7.20;;;22.20;42.10;;;;;;6273563;28;20024;-62
2021/01/05 11:56:36;;;;;;;18.98;7.20;;;22.30;42.10;;;;;;6274627;28;20145;-63
2021/01/05 11:59:37;;;;;;;14.18;6.70;;;22.30;42.20;;;;;;6275131;28;20044;-64
2021/01/05 12:02:38;;;;;;;32.83;7.05;;;22.30;42.40;;;;;;6274362;28;20058;-60
2021/01/05 12:05:38;;;;;;;24.77;6.20;;;22.30;42.50;;;;;;6273550;28;20104;-62
2021/01/05 12:08:39;;;;;;;40.65;6.22;;;22.30;42.70;;;;;;6277787;28;20020;-62
2021/01/05 12:11:40;;;;;;;55.33;7.03;;;22.30;42.80;;;;;;6275014;28;20025;-66
2021/01/05 12:14:40;;;;;;;29.70;6.45;;;22.30;43.20;;;;;;6275074;28;20020;-63
2021/01/05 12:17:41;;;;;;;29.38;6.15;;;22.30;43.00;;;;;;6273018;28;20025;-63
2021/01/05 12:20:41;;;;;;;36.00;5.85;;;22.40;43.40;;;;;;6274102;28;20056;-63
2021/01/05 12:23:42;;;;;;;22.95;5.50;;;22.30;43.00;;;;;;6274448;28;20111;-61
2021/01/05 12:26:43;;;;;;;24.45;5.10;;;22.30;43.00;;;;;;6265284;28;20086;-64
2021/01/05 12:29:44;;;;;;;19.63;5.28;;;22.30;43.00;;;;;;6271689;28;20029;-63
2021/01/05 12:32:44;;;;;;;21.08;4.97;;;22.20;42.90;;;;;;6273114;28;20135;-64
2021/01/05 12:35:45;;;;;;;24.42;5.03;;;22.20;42.90;;;;;;6273427;28;20028;-63
2021/01/05 12:38:45;;;;;;;10.98;4.43;;;22.20;42.80;;;;;;6273213;28;20052;-62
2021/01/05 12:41:46;;;;;;;9.30;4.35;;;22.20;42.80;;;;;;6269541;28;20757;-63
2021/01/05 12:44:49;;;;;;;19.65;4.72;;;22.20;42.70;;;;;;6273028;28;20024;-63
2021/01/05 12:47:50;;;;;;;10.27;4.03;;;22.20;42.60;;;;;;6273391;28;20422;-62
2021/01/05 12:50:51;;;;;;;6.75;3.83;;;22.10;42.60;;;;;;6273517;28;20036;-63
2021/01/05 12:53:52;;;;;;;6.75;3.28;;;22.10;42.70;;;;;;6273010;28;20389;-64
2021/01/05 12:56:55;;;;;;;7.85;3.95;;;22.10;42.60;;;;;;6272680;28;20043;-64
2021/01/05 12:59:56;;;;;;;11.48;3.40;;;22.10;42.60;;;;;;6271816;28;20115;-64
2021/01/05 13:02:57;;;;;;;7.55;3.40;;;22.10;42.60;;;;;;6273794;28;20036;-64
2021/01/05 13:05:58;;;;;;;7.32;3.63;;;22.10;42.70;;;;;;6272432;28;20025;-64
2021/01/05 13:09:00;;;;;;;8.52;3.33;;;22.00;42.60;;;;;;6271204;28;20400;-64
2021/01/05 13:12:00;;;;;;;7.80;3.53;;;22.00;42.60;;;;;;6273897;28;20063;-61
2021/01/05 13:15:01;;;;;;;5.93;3.53;;;22.00;42.50;;;;;;6273180;28;20368;-64
2021/01/05 13:18:02;;;;;;;7.05;3.63;;;22.00;42.60;;;;;;6273233;28;20397;-63
2021/01/05 13:21:02;;;;;;;7.28;3.33;;;22.00;42.50;;;;;;6270674;28;20021;-61
2021/01/05 13:24:17;;;;;;;7.25;3.22;;;22.00;42.50;;;;;;6289479;28;20021;-64
2021/01/05 13:27:17;;;;;;;7.22;3.35;;;22.00;42.60;;;;;;6271834;28;20032;-63
2021/01/05 13:30:18;;;;;;;6.78;3.70;;;22.00;42.60;;;;;;6271486;28;20357;-63
2021/01/05 13:33:19;;;;;;;4.45;3.05;;;22.00;42.40;;;;;;6270940;28;20501;-63
2021/01/05 13:36:25;;;;;;;6.38;2.75;;;22.00;42.40;;;;;;6272323;28;20035;-62
2021/01/05 13:39:26;;;;;;;6.07;3.30;;;22.10;42.40;;;;;;6272573;28;20017;-63
2021/01/05 13:42:26;;;;;;;4.40;2.85;;;22.10;42.30;;;;;;6272262;28;20024;-63
2021/01/05 13:45:27;;;;;;;5.07;3.33;;;22.10;42.10;;;;;;6270857;28;20020;-62
2021/01/05 13:48:27;;;;;;;4.22;2.88;;;22.10;42.00;;;;;;6272281;28;20040;-62
2021/01/05 13:51:31;;;;;;;7.07;2.67;;;22.10;41.90;;;;;;6266173;28;20025;-63
2021/01/05 13:54:31;;;;;;;5.93;3.67;;;22.10;41.90;;;;;;6268161;28;20039;-65
2021/01/05 13:57:32;;;;;;;5.80;4.00;;;21.90;41.90;;;;;;6270642;28;20063;-64
2021/01/05 14:00:32;;;;;;;9.88;3.70;;;21.90;41.20;;;;;;6273661;28;20074;-63
2021/01/05 14:03:33;;;;;;;7.82;4.07;;;22.00;41.10;;;;;;6272463;28;20020;-64
2021/01/05 14:06:34;;;;;;;6.22;3.67;;;22.10;41.10;;;;;;6271960;28;20035;-63
2021/01/05 14:09:36;;;;;;;5.82;3.30;;;22.10;41.00;;;;;;6269470;28;20024;-62
2021/01/05 14:12:36;;;;;;;4.18;3.08;;;22.20;41.10;;;;;;6271129;28;20075;-62
2021/01/05 14:15:37;;;;;;;5.88;3.55;;;22.20;41.20;;;;;;6271049;28;20040;-63
2021/01/05 14:18:39;;;;;;;4.93;3.13;;;22.20;41.20;;;;;;6284952;28;20028;-65
2021/01/05 14:21:39;;;;;;;5.85;3.22;;;22.30;41.20;;;;;;6280275;28;20039;-63
2021/01/05 14:24:40;;;;;;;5.72;3.15;;;22.30;41.20;;;;;;6275594;28;20024;-64
2021/01/05 14:27:41;;;;;;;8.55;2.97;;;22.30;41.30;;;;;;6292063;28;20037;-64
2021/01/05 14:30:43;;;;;;;5.07;2.97;;;22.30;41.30;;;;;;6280304;28;20081;-64
2021/01/05 14:33:44;;;;;;;3.85;2.80;;;22.40;41.30;;;;;;6273870;28;20074;-63
2021/01/05 14:36:45;;;;;;;4.13;2.97;;;22.40;41.30;;;;;;6277068;28;20024;-63
2021/01/05 14:39:47;;;;;;;4.55;2.72;;;22.40;41.30;;;;;;6276652;28;20017;-64
2021/01/05 14:42:50;;;;;;;5.88;3.20;;;22.40;41.20;;;;;;6275951;28;20029;-64
2021/01/05 14:45:51;;;;;;;4.60;2.80;;;22.40;41.20;;;;;;6275418;28;20040;-64
2021/01/05 14:48:51;;;;;;;5.07;3.03;;;22.50;41.30;;;;;;6264581;28;20103;-64
2021/01/05 14:51:57;;;;;;;5.38;3.25;;;22.50;41.40;;;;;;6276322;28;20131;-63
2021/01/05 14:54:58;;;;;;;4.07;2.50;;;22.50;41.40;;;;;;6265630;28;20035;-64
2021/01/05 14:57:58;;;;;;;4.25;2.55;;;22.50;41.40;;;;;;6274888;28;20028;-64
2021/01/05 15:00:58;;;;;;;3.78;2.85;;;22.50;41.40;;;;;;6275562;28;20027;-64
2021/01/05 15:03:59;;;;;;;4.75;2.90;;;22.50;41.40;;;;;;6276583;28;20074;-65
2021/01/05 15:07:00;;;;;;;4.50;2.80;;;22.50;41.50;;;;;;6275537;28;20067;-64
2021/01/05 15:10:01;;;;;;;4.28;2.55;;;22.50;41.40;;;;;;6274971;28;20115;-65
2021/01/05 15:13:01;;;;;;;3.70;2.85;;;22.50;41.40;;;;;;6275869;28;20107;-64
2021/01/05 15:16:02;;;;;;;5.10;2.70;;;22.50;41.40;;;;;;6290725;28;20625;-64
2021/01/05 15:19:02;;;;;;;6.97;2.95;;;22.50;41.40;;;;;;6261988;28;20032;-64
2021/01/05 15:22:03;;;;;;;3.85;2.47;;;22.50;41.50;;;;;;6274604;28;20028;-64
2021/01/05 15:25:05;;;;;;;4.43;2.60;;;22.50;41.40;;;;;;6274800;28;20501;-64
2021/01/05 15:28:05;;;;;;;3.30;2.47;;;22.50;41.40;;;;;;6274731;28;20037;-65
2021/01/05 15:31:06;;;;;;;4.68;2.78;;;22.50;41.40;;;;;;6289055;28;20041;-63
2021/01/05 15:34:14;;;;;;;3.65;2.45;;;22.50;41.40;;;;;;6274008;28;20043;-64
2021/01/05 15:37:15;;;;;;;4.22;2.90;;;22.50;41.50;;;;;;6271344;28;20021;-64
2021/01/05 15:40:15;;;;;;;4.15;2.67;;;22.50;41.60;;;;;;6273403;28;20381;-64
2021/01/05 15:43:16;;;;;;;4.55;2.67;;;22.50;41.50;;;;;;6273746;28;20052;-64
2021/01/05 15:46:29;;;;;;;4.05;2.70;;;22.50;42.40;;;;;;6275523;28;20040;-64
2021/01/05 15:49:33;;;;;;;4.13;2.58;;;22.60;41.60;;;;;;6270800;28;20023;-64
2021/01/05 15:52:34;;;;;;;3.13;2.55;;;22.60;41.60;;;;;;6272373;28;20039;-64
2021/01/05 15:55:37;;;;;;;3.78;2.70;;;22.50;41.50;;;;;;6273271;28;20029;-62